Time;durP1;ratioP1;P1;durP2;ratioP2;P2;SDS_P1;SDS_P2;PMS_P1;PMS_P2;Temp;Humidity;BMP_temperature;BMP_pressure;BME280_temperature;BME280_humidity;BME280_pressure;Samples;Min_cycle;Max_cycle;Signal;HPM_P1;HPM_P2
2023/07/10 00:01:44;;;;;;;;;6.00;5.67;;;;;-147.70;100.00;61350.09;5059008;28;45217;-71
2023/07/10 00:04:18;;;;;;;;;8.33;6.33;;;;;-147.70;100.00;61350.09;5058707;28;46331;-71
2023/07/10 00:06:44;;;;;;;;;4.33;4.00;;;;;-147.70;100.00;61350.09;5058881;28;45368;-71
2023/07/10 00:09:10;;;;;;;;;8.00;8.00;;;;;-147.70;100.00;61350.09;5041858;28;45424;-71
2023/07/10 00:11:35;;;;;;;;;6.00;6.00;;;;;-147.70;100.00;61350.09;5057469;28;45373;-71
2023/07/10 00:14:01;;;;;;;;;6.00;6.00;;;;;-147.70;100.00;61350.09;5058798;28;45595;-71
2023/07/10 00:16:28;;;;;;;;;3.67;3.67;;;;;-147.70;100.00;61350.09;5058711;28;45457;-71
2023/07/10 00:18:53;;;;;;;;;7.00;7.00;;;;;-147.70;100.00;61350.09;5058730;28;45340;-71
2023/07/10 00:21:19;;;;;;;;;5.33;5.33;;;;;-147.70;100.00;61350.09;5058801;28;45378;-71
2023/07/10 00:23:45;;;;;;;;;6.67;6.00;;;;;-147.70;100.00;61350.09;5058375;28;46108;-71
2023/07/10 00:26:24;;;;;;;;;8.33;7.00;;;;;-147.70;100.00;61350.09;5040904;28;45394;-71
2023/07/10 00:28:51;;;;;;;;;8.67;7.00;;;;;-147.70;100.00;61350.09;5057320;28;45329;-71
2023/07/10 00:31:17;;;;;;;;;11.00;8.00;;;;;-147.70;100.00;61350.09;5058578;28;45403;-71
2023/07/10 00:33:42;;;;;;;;;9.00;8.00;;;;;-147.70;100.00;61350.09;5044595;28;45246;-71
2023/07/10 00:36:35;;;;;;;;;7.33;6.33;;;;;-147.70;100.00;61350.09;5038487;28;45262;-71
2023/07/10 00:39:15;;;;;;;;;7.00;5.67;;;;;-147.70;100.00;61350.09;5038223;28;45579;-71
2023/07/10 00:41:43;;;;;;;;;9.33;8.00;;;;;-147.70;100.00;61350.09;5038317;28;45320;-71
2023/07/10 00:44:09;;;;;;;;;9.00;8.00;;;;;-147.70;100.00;61350.09;5038174;28;45295;-71
2023/07/10 00:46:48;;;;;;;;;6.00;6.00;;;;;-147.70;100.00;61350.09;5037865;28;45448;-71
2023/07/10 00:49:25;;;;;;;;;11.00;8.33;;;;;-147.70;100.00;61350.09;5038775;28;45233;-71
2023/07/10 00:52:01;;;;;;;;;8.67;8.00;;;;;-147.70;100.00;61350.09;5058301;28;45386;-71
2023/07/10 00:54:33;;;;;;;;;8.67;6.67;;;;;-147.70;100.00;61350.09;5058003;28;45408;-71
2023/07/10 00:57:01;;;;;;;;;9.33;7.67;;;;;-147.70;100.00;61350.09;5057820;28;45230;-71
2023/07/10 00:59:28;;;;;;;;;11.33;8.00;;;;;-147.70;100.00;61350.09;5056516;28;45605;-71
2023/07/10 01:02:12;;;;;;;;;9.00;7.00;;;;;-147.70;100.00;61350.09;5058082;28;45412;-71
2023/07/10 01:04:40;;;;;;;;;6.00;6.00;;;;;-147.70;100.00;61350.09;5050841;28;46301;-71
2023/07/10 01:07:16;;;;;;;;;12.67;10.00;;;;;-147.70;100.00;61350.09;5037639;28;45221;-71
2023/07/10 01:09:48;;;;;;;;;11.33;8.33;;;;;-147.70;100.00;61350.09;5037657;28;45450;-70
2023/07/10 01:12:13;;;;;;;;;8.33;8.33;;;;;-147.70;100.00;61350.09;5037954;28;45295;-71
2023/07/10 01:14:39;;;;;;;;;10.00;8.33;;;;;-147.70;100.00;61350.09;5037596;28;45467;-71
2023/07/10 01:17:07;;;;;;;;;9.33;7.33;;;;;-147.70;100.00;61350.09;5037679;28;45535;-71
2023/07/10 01:19:34;;;;;;;;;11.00;10.00;;;;;-147.70;100.00;61350.09;5045233;28;45495;-71
2023/07/10 01:22:00;;;;;;;;;9.00;8.67;;;;;-147.70;100.00;61350.09;5057765;28;45428;-71
2023/07/10 01:24:26;;;;;;;;;10.67;8.33;;;;;-147.70;100.00;61350.09;5057418;28;46141;-71
2023/07/10 01:26:53;;;;;;;;;14.00;9.00;;;;;-147.70;100.00;61350.09;5055560;28;45427;-71
2023/07/10 01:29:33;;;;;;;;;13.67;11.00;;;;;-147.70;100.00;61350.09;5057708;28;45261;-71
2023/07/10 01:32:00;;;;;;;;;12.00;10.67;;;;;-147.70;100.00;61350.09;5057653;28;45366;-71
2023/07/10 01:34:38;;;;;;;;;14.67;12.00;;;;;-147.70;100.00;61350.09;5051983;28;46200;-71
2023/07/10 01:37:05;;;;;;;;;13.00;11.33;;;;;-147.70;100.00;61350.09;5037223;28;45498;-71
2023/07/10 01:39:40;;;;;;;;;10.00;8.00;;;;;-147.70;100.00;61350.09;5037380;28;45305;-71
2023/07/10 01:42:05;;;;;;;;;15.33;13.33;;;;;-147.70;100.00;61350.09;5037527;28;45215;-70
2023/07/10 01:44:33;;;;;;;;;13.67;11.67;;;;;-147.70;100.00;61350.09;5037283;28;46151;-71
2023/07/10 01:47:00;;;;;;;;;11.33;9.00;;;;;-147.70;100.00;61350.09;5037089;28;45294;-71
2023/07/10 01:49:34;;;;;;;;;10.00;10.00;;;;;-147.70;100.00;61350.09;5044003;28;45443;-71
2023/07/10 01:52:02;;;;;;;;;9.33;9.33;;;;;-147.70;100.00;61350.09;5057530;28;45452;-71
2023/07/10 01:54:28;;;;;;;;;11.00;8.00;;;;;-147.70;100.00;61350.09;5057010;28;47541;-70
2023/07/10 01:56:53;;;;;;;;;13.33;10.00;;;;;-147.70;100.00;61350.09;5046427;28;45470;-71
2023/07/10 01:59:19;;;;;;;;;20.00;18.33;;;;;-147.70;100.00;61350.09;5037584;28;45488;-71
2023/07/10 02:01:44;;;;;;;;;12.00;9.00;;;;;-147.70;100.00;61350.09;5040697;28;45404;-71
2023/07/10 02:04:10;;;;;;;;;14.00;9.33;;;;;-147.70;100.00;61350.09;5044249;28;46349;-71
2023/07/10 02:06:37;;;;;;;;;6.67;6.00;;;;;-147.70;100.00;61350.09;5051776;28;45296;-71
2023/07/10 02:09:04;;;;;;;;;12.67;8.67;;;;;-147.70;100.00;61350.09;5060822;28;45338;-70
2023/07/10 02:11:30;;;;;;;;;8.67;8.67;;;;;-147.70;100.00;61350.09;5060792;28;45289;-71
2023/07/10 02:13:55;;;;;;;;;7.33;7.33;;;;;-147.70;100.00;61350.09;5060511;28;46212;-70
2023/07/10 02:16:20;;;;;;;;;8.00;8.00;;;;;-147.70;100.00;61350.09;5059971;28;45423;-70
2023/07/10 02:18:46;;;;;;;;;8.33;8.00;;;;;-147.70;100.00;61350.09;5060686;28;45307;-70
2023/07/10 02:21:11;;;;;;;;;11.67;9.00;;;;;-147.70;100.00;61350.09;5060956;28;45336;-70
2023/07/10 02:23:38;;;;;;;;;6.33;6.33;;;;;-147.70;100.00;61350.09;5060471;28;46532;-71
2023/07/10 02:26:05;;;;;;;;;9.00;7.67;;;;;-147.70;100.00;61350.09;5060344;28;45171;-70
2023/07/10 02:28:30;;;;;;;;;7.00;7.00;;;;;-147.70;100.00;61350.09;5052193;28;45451;-70
2023/07/10 02:30:56;;;;;;;;;10.00;7.00;;;;;-147.70;100.00;61350.09;5040486;28;45303;-70
2023/07/10 02:33:22;;;;;;;;;7.00;6.33;;;;;-147.70;100.00;61350.09;5040075;28;47390;-70
2023/07/10 02:35:48;;;;;;;;;7.67;6.00;;;;;-147.70;100.00;61350.09;5040127;28;45361;-70
2023/07/10 02:38:14;;;;;;;;;5.67;5.00;;;;;-147.70;100.00;61350.09;5040225;28;45366;-70
2023/07/10 02:40:41;;;;;;;;;11.00;8.00;;;;;-147.70;100.00;61350.09;5050452;28;45258;-70
2023/07/10 02:43:07;;;;;;;;;9.00;9.00;;;;;-147.70;100.00;61350.09;5059991;28;45542;-70
2023/07/10 02:45:34;;;;;;;;;10.00;7.00;;;;;-147.70;100.00;61350.09;5060200;28;45406;-70
2023/07/10 02:47:59;;;;;;;;;5.00;5.00;;;;;-147.70;100.00;61350.09;5060229;28;45155;-70
2023/07/10 02:50:25;;;;;;;;;7.67;5.00;;;;;-147.70;100.00;61350.09;5060347;28;45873;-71
2023/07/10 02:52:50;;;;;;;;;7.00;6.00;;;;;-147.70;100.00;61350.09;5060169;28;45771;-71
2023/07/10 02:55:15;;;;;;;;;5.67;5.33;;;;;-147.70;100.00;61350.09;5051010;28;45825;-71
2023/07/10 02:57:41;;;;;;;;;5.67;5.67;;;;;-147.70;100.00;61350.09;5039951;28;45341;-71
2023/07/10 03:00:07;;;;;;;;;8.67;6.00;;;;;-147.70;100.00;61350.09;5040049;28;45219;-71
2023/07/10 03:02:32;;;;;;;;;7.33;5.67;;;;;-147.70;100.00;61350.09;5039325;28;45494;-70
2023/07/10 03:04:58;;;;;;;;;7.00;5.00;;;;;-147.70;100.00;61350.09;5039752;28;45250;-71
2023/07/10 03:07:23;;;;;;;;;9.00;7.67;;;;;-147.70;100.00;61350.09;5039756;28;45381;-70
2023/07/10 03:09:49;;;;;;;;;6.00;5.00;;;;;-147.70;100.00;61350.09;5047843;28;45341;-71
2023/07/10 03:12:15;;;;;;;;;6.00;4.67;;;;;-147.70;100.00;61350.09;5059362;28;46455;-71
2023/07/10 03:14:40;;;;;;;;;6.33;5.33;;;;;-147.70;100.00;61350.09;5059706;28;45399;-71
2023/07/10 03:17:06;;;;;;;;;8.33;6.00;;;;;-147.70;100.00;61350.09;5059875;28;45359;-71
2023/07/10 03:19:31;;;;;;;;;6.67;6.33;;;;;-147.70;100.00;61350.09;5059984;28;45376;-71
2023/07/10 03:21:57;;;;;;;;;7.00;5.67;;;;;-147.70;100.00;61350.09;5059505;28;46196;-71
2023/07/10 03:24:23;;;;;;;;;5.67;5.67;;;;;-147.70;100.00;61350.09;5052676;28;45249;-71
2023/07/10 03:26:49;;;;;;;;;9.00;8.00;;;;;-147.70;100.00;61350.09;5039368;28;45371;-71
2023/07/10 03:29:15;;;;;;;;;6.67;6.67;;;;;-147.70;100.00;61350.09;5039627;28;45289;-71
2023/07/10 03:31:41;;;;;;;;;6.33;5.33;;;;;-147.70;100.00;61350.09;5039294;28;45622;-71
2023/07/10 03:34:07;;;;;;;;;7.00;7.00;;;;;-147.70;100.00;61350.09;5039285;28;45471;-71
2023/07/10 03:36:33;;;;;;;;;8.00;6.00;;;;;-147.70;100.00;61350.09;5039289;28;45345;-71
2023/07/10 03:38:59;;;;;;;;;9.00;6.67;;;;;-147.70;100.00;61350.09;5044727;28;45462;-71
2023/07/10 03:41:25;;;;;;;;;6.00;5.00;;;;;-147.70;100.00;61350.09;5059339;28;46211;-71
2023/07/10 03:43:50;;;;;;;;;7.33;6.00;;;;;-147.70;100.00;61350.09;5059100;28;45336;-71
2023/07/10 03:46:16;;;;;;;;;4.00;4.00;;;;;-147.70;100.00;61350.09;5059400;28;45542;-71
2023/07/10 03:48:42;;;;;;;;;7.00;7.00;;;;;-147.70;100.00;61350.09;5052498;28;45358;-71
2023/07/10 03:51:08;;;;;;;;;19.00;19.00;;;;;-147.70;100.00;61350.09;5038751;28;46328;-71
2023/07/10 03:53:33;;;;;;;;;4.33;4.00;;;;;-147.70;100.00;61350.09;5038929;28;45382;-71
2023/07/10 03:55:59;;;;;;;;;6.00;6.00;;;;;-147.70;100.00;61350.09;5039097;28;45549;-71
2023/07/10 03:58:28;;;;;;;;;7.00;5.33;;;;;-147.70;100.00;61350.09;5039137;28;45348;-71
2023/07/10 04:00:55;;;;;;;;;7.67;5.33;;;;;-147.70;100.00;61350.09;5038721;28;46447;-71
2023/07/10 04:03:22;;;;;;;;;8.33;7.67;;;;;-147.70;100.00;61350.09;5043688;28;45419;-71
2023/07/10 04:05:52;;;;;;;;;8.00;6.33;;;;;-147.70;100.00;61350.09;5059069;28;45345;-70
2023/07/10 04:08:17;;;;;;;;;4.00;4.00;;;;;-147.70;100.00;61350.09;5057360;28;45216;-70
2023/07/10 04:10:51;;;;;;;;;10.67;8.00;;;;;-147.70;100.00;61350.09;5058571;28;45999;-70
2023/07/10 04:13:16;;;;;;;;;5.33;5.33;;;;;-147.70;100.00;61350.09;5058707;28;45231;-70
2023/07/10 04:15:41;;;;;;;;;3.67;3.67;;;;;-147.70;100.00;61350.09;5053830;28;45300;-71
2023/07/10 04:18:07;;;;;;;;;8.33;5.33;;;;;-147.70;100.00;61350.09;5038840;28;45349;-71
2023/07/10 04:20:32;;;;;;;;;5.00;5.00;;;;;-147.70;100.00;61350.09;5038548;28;46327;-71
2023/07/10 04:22:57;;;;;;;;;13.00;11.33;;;;;-147.70;100.00;61350.09;5037750;28;45315;-71
2023/07/10 04:25:23;;;;;;;;;6.33;6.00;;;;;-147.70;100.00;61350.09;5039540;28;45379;-70
2023/07/10 04:27:48;;;;;;;;;9.33;6.00;;;;;-147.70;100.00;61350.09;5038466;28;45475;-71
2023/07/10 04:30:14;;;;;;;;;8.33;6.00;;;;;-147.70;100.00;61350.09;5038593;28;46292;-71
2023/07/10 04:32:39;;;;;;;;;14.33;10.33;;;;;-147.70;100.00;61350.09;5038385;28;45372;-71
2023/07/10 04:35:05;;;;;;;;;23.33;17.00;;;;;-147.70;100.00;61350.09;5036873;28;45817;-71
2023/07/10 04:37:31;;;;;;;;;29.67;21.67;;;;;-147.70;100.00;61350.09;5039431;28;45251;-70
2023/07/10 04:39:56;;;;;;;;;14.67;9.00;;;;;-147.70;100.00;61350.09;5038102;28;47345;-70
2023/07/10 04:42:22;;;;;;;;;8.00;6.00;;;;;-147.70;100.00;61350.09;5038106;28;45448;-70
2023/07/10 04:44:47;;;;;;;;;10.33;7.67;;;;;-147.70;100.00;61350.09;5038263;28;45266;-70
2023/07/10 04:47:12;;;;;;;;;8.00;5.00;;;;;-147.70;100.00;61350.09;5038361;28;45453;-70
2023/07/10 04:49:38;;;;;;;;;13.33;13.00;;;;;-147.70;100.00;61350.09;5042754;28;46447;-70
2023/07/10 04:52:03;;;;;;;;;5.67;4.00;;;;;-147.70;100.00;61350.09;5052742;28;46496;-73
2023/07/10 04:54:29;;;;;;;;;7.67;6.00;;;;;-147.70;100.00;61350.09;5052600;28;46739;-73
2023/07/10 04:56:54;;;;;;;;;7.67;5.33;;;;;-147.70;100.00;61350.09;5041724;28;45501;-73
2023/07/10 04:59:20;;;;;;;;;7.67;4.33;;;;;-147.70;100.00;61350.09;5037642;28;46464;-73
2023/07/10 05:01:45;;;;;;;;;9.67;7.00;;;;;-147.70;100.00;61350.09;5046610;28;45244;-73
2023/07/10 05:04:10;;;;;;;;;6.33;5.00;;;;;-147.70;100.00;61350.09;5056350;28;45371;-73
2023/07/10 05:06:37;;;;;;;;;5.00;5.00;;;;;-147.70;100.00;61350.09;5045511;28;45435;-73
2023/07/10 05:09:02;;;;;;;;;6.00;6.00;;;;;-147.70;100.00;61350.09;5038300;28;46848;-72
2023/07/10 05:11:30;;;;;;;;;4.00;4.00;;;;;-147.70;100.00;61350.09;5037647;28;45175;-72
2023/07/10 05:13:56;;;;;;;;;8.00;3.00;;;;;-147.70;100.00;61350.09;5038070;28;45202;-72
2023/07/10 05:16:22;;;;;;;;;5.00;5.00;;;;;-147.70;100.00;61350.09;5038925;28;45366;-73
2023/07/10 05:18:47;;;;;;;;;7.00;4.00;;;;;-147.70;100.00;61350.09;5037607;28;46688;-73
2023/07/10 05:21:13;;;;;;;;;6.00;5.33;;;;;-147.70;100.00;61350.09;5053493;28;45302;-73
2023/07/10 05:23:38;;;;;;;;;4.33;4.33;;;;;-147.70;100.00;61350.09;5054702;28;45352;-73
2023/07/10 05:26:14;;;;;;;;;6.00;5.00;;;;;-147.70;100.00;61350.09;5037716;28;45587;-73
2023/07/10 05:28:40;;;;;;;;;3.00;3.00;;;;;-147.70;100.00;61350.09;5037458;28;45517;-73
2023/07/10 05:31:08;;;;;;;;;5.00;3.33;;;;;-147.70;100.00;61350.09;5040858;28;45435;-72
2023/07/10 05:33:33;;;;;;;;;3.00;3.00;;;;;-147.70;100.00;61350.09;5054495;28;45400;-73
2023/07/10 05:36:04;;;;;;;;;4.00;4.00;;;;;-147.70;100.00;61350.09;5056639;28;45316;-73
2023/07/10 05:38:32;;;;;;;;;4.33;2.00;;;;;-147.70;100.00;61350.09;5040097;28;46475;-72
2023/07/10 05:40:59;;;;;;;;;9.67;9.67;;;;;-147.70;100.00;61350.09;5038819;28;45240;-72
2023/07/10 05:43:25;;;;;;;;;3.67;3.67;;;;;-147.70;100.00;61350.09;5057301;28;45384;-72
2023/07/10 05:45:52;;;;;;;;;3.00;3.00;;;;;-147.70;100.00;61350.09;5057459;28;45384;-72
2023/07/10 05:48:18;;;;;;;;;3.33;3.00;;;;;-147.70;100.00;61350.09;5053165;28;47441;-72
2023/07/10 05:50:45;;;;;;;;;2.33;2.33;;;;;-147.70;100.00;61350.09;5047345;28;45416;-72
2023/07/10 05:53:10;;;;;;;;;1.00;1.00;;;;;-147.70;100.00;61350.09;5037594;28;45364;-72
2023/07/10 05:55:36;;;;;;;;;3.00;1.00;;;;;-147.70;100.00;61350.09;5043215;28;45555;-72
2023/07/10 05:58:01;;;;;;;;;4.00;4.00;;;;;-147.70;100.00;61350.09;5051566;28;45345;-72
2023/07/10 06:00:26;;;;;;;;;3.33;3.33;;;;;-147.70;100.00;61350.09;5037241;28;45467;-70
2023/07/10 06:02:52;;;;;;;;;10.00;9.33;;;;;-147.70;100.00;61350.09;5040653;28;45412;-71
2023/07/10 06:05:17;;;;;;;;;13.67;11.67;;;;;-147.70;100.00;61350.09;5037976;28;45330;-72
2023/07/10 06:07:43;;;;;;;;;7.00;6.00;;;;;-147.70;100.00;61350.09;5036865;28;47216;-71
2023/07/10 06:10:08;;;;;;;;;6.00;4.33;;;;;-147.70;100.00;61350.09;5048117;28;45805;-73
2023/07/10 06:12:33;;;;;;;;;5.67;4.67;;;;;-147.70;100.00;61350.09;5056829;28;45269;-72
2023/07/10 06:14:59;;;;;;;;;11.00;8.67;;;;;-147.70;100.00;61350.09;5056870;28;45305;-72
2023/07/10 06:17:24;;;;;;;;;7.00;6.00;;;;;-147.70;100.00;61350.09;5056806;28;45609;-74
2023/07/10 06:19:49;;;;;;;;;7.67;5.33;;;;;-147.70;100.00;61350.09;5056656;28;45445;-73
2023/07/10 06:22:15;;;;;;;;;5.00;4.33;;;;;-147.70;100.00;61350.09;5056823;28;45725;-73
2023/07/10 06:24:40;;;;;;;;;7.67;5.00;;;;;-147.70;100.00;61350.09;5057032;28;45405;-73
2023/07/10 06:27:06;;;;;;;;;7.67;5.00;;;;;-147.70;100.00;61350.09;5056285;28;45532;-73
2023/07/10 06:29:35;;;;;;;;;6.33;5.00;;;;;-147.70;100.00;61350.09;5056479;28;45410;-73
2023/07/10 06:32:01;;;;;;;;;6.00;4.67;;;;;-147.70;100.00;61350.09;5056391;28;45401;-81
2023/07/10 06:34:28;;;;;;;;;7.00;4.33;;;;;-147.70;100.00;61350.09;5056627;28;45243;-79
2023/07/10 06:36:53;;;;;;;;;7.67;7.67;;;;;-147.70;100.00;61350.09;5056663;28;45438;-73
2023/07/10 06:39:19;;;;;;;;;3.00;3.00;;;;;-147.70;100.00;61350.09;5056292;28;45495;-72
2023/07/10 06:41:44;;;;;;;;;2.00;2.00;;;;;-147.70;100.00;61350.09;5043752;28;45443;-73
2023/07/10 06:44:10;;;;;;;;;4.00;3.00;;;;;-147.70;100.00;61350.09;5036753;28;45343;-72
2023/07/10 06:46:35;;;;;;;;;2.00;2.00;;;;;-147.70;100.00;61350.09;5054675;28;46605;-73
2023/07/10 06:49:00;;;;;;;;;2.00;2.00;;;;;-147.70;100.00;61350.09;5059789;28;45392;-73
2023/07/10 06:51:26;;;;;;;;;0.00;0.00;;;;;-147.70;100.00;61350.09;5060213;28;45357;-73
2023/07/10 06:53:51;;;;;;;;;2.00;1.67;;;;;-147.70;100.00;61350.09;5048465;28;45521;-73
2023/07/10 06:56:16;;;;;;;;;2.33;1.33;;;;;-147.70;100.00;61350.09;5049838;28;46673;-72
2023/07/10 06:58:42;;;;;;;;;2.00;1.00;;;;;-147.70;100.00;61350.09;5059699;28;45349;-71
2023/07/10 07:01:07;;;;;;;;;2.33;2.33;;;;;-147.70;100.00;61350.09;5059803;28;45272;-73
2023/07/10 07:03:32;;;;;;;;;2.67;2.00;;;;;-147.70;100.00;61350.09;5051967;28;45831;-73
2023/07/10 07:05:58;;;;;;;;;4.00;3.00;;;;;-147.70;100.00;61350.09;5039668;28;45423;-73
2023/07/10 07:08:24;;;;;;;;;2.00;2.00;;;;;-147.70;100.00;61350.09;5050141;28;45375;-72
2023/07/10 07:10:51;;;;;;;;;3.33;2.00;;;;;-147.70;100.00;61350.09;5059751;28;45404;-73
2023/07/10 07:13:18;;;;;;;;;2.33;1.00;;;;;-147.70;100.00;61350.09;5059559;28;45527;-73
2023/07/10 07:15:48;;;;;;;;;6.33;2.67;;;;;-147.70;100.00;61350.09;5059291;28;47343;-72
2023/07/10 07:18:13;;;;;;;;;5.33;3.00;;;;;-147.70;100.00;61350.09;5054691;28;45517;-72
2023/07/10 07:20:39;;;;;;;;;3.00;1.33;;;;;-147.70;100.00;61350.09;5059570;28;45485;-73
2023/07/10 07:23:04;;;;;;;;;1.33;1.33;;;;;-147.70;100.00;61350.09;5053963;28;45463;-73
2023/07/10 07:25:30;;;;;;;;;4.33;1.00;;;;;-147.70;100.00;61350.09;5059528;28;46165;-72
2023/07/10 07:28:00;;;;;;;;;2.67;2.67;;;;;-147.70;100.00;61350.09;5041332;28;45255;-74
2023/07/10 07:30:27;;;;;;;;;3.00;1.67;;;;;-147.70;100.00;61350.09;5039332;28;45488;-74
2023/07/10 07:32:53;;;;;;;;;2.00;2.00;;;;;-147.70;100.00;61350.09;5039586;28;45364;-74
2023/07/10 07:35:18;;;;;;;;;3.00;1.00;;;;;-147.70;100.00;61350.09;5039016;28;46085;-74
2023/07/10 07:37:43;;;;;;;;;3.33;2.00;;;;;-147.70;100.00;61350.09;5040331;28;45286;-73
2023/07/10 07:40:09;;;;;;;;;3.67;3.00;;;;;-147.70;100.00;61350.09;5039383;28;45289;-72
2023/07/10 07:42:35;;;;;;;;;2.00;2.00;;;;;-147.70;100.00;61350.09;5039459;28;45425;-73
2023/07/10 07:45:01;;;;;;;;;2.00;1.00;;;;;-147.70;100.00;61350.09;5039030;28;45920;-73
2023/07/10 07:47:27;;;;;;;;;1.00;1.00;;;;;-147.70;100.00;61350.09;5038988;28;45460;-75
2023/07/10 07:49:53;;;;;;;;;1.00;1.00;;;;;-147.70;100.00;61350.09;5039185;28;45246;-73
2023/07/10 07:52:18;;;;;;;;;4.33;2.33;;;;;-147.70;100.00;61350.09;5039264;28;45496;-73
2023/07/10 07:54:43;;;;;;;;;2.00;2.00;;;;;-147.70;100.00;61350.09;5038960;28;45660;-74
2023/07/10 07:57:09;;;;;;;;;3.67;2.00;;;;;-147.70;100.00;61350.09;5038077;28;46025;-73
2023/07/10 07:59:34;;;;;;;;;3.00;3.00;;;;;-147.70;100.00;61350.09;5038870;28;45328;-73
2023/07/10 08:01:59;;;;;;;;;2.67;1.67;;;;;-147.70;100.00;61350.09;5038882;28;45378;-72
2023/07/10 08:04:25;;;;;;;;;2.33;2.33;;;;;-147.70;100.00;61350.09;5038782;28;45512;-74
2023/07/10 08:06:50;;;;;;;;;2.00;1.00;;;;;-147.70;100.00;61350.09;5038662;28;45337;-72
2023/07/10 08:09:16;;;;;;;;;4.00;4.00;;;;;-147.70;100.00;61350.09;5039152;28;45384;-73
2023/07/10 08:11:42;;;;;;;;;3.00;2.00;;;;;-147.70;100.00;61350.09;5038871;28;45354;-72
2023/07/10 08:14:07;;;;;;;;;2.00;2.00;;;;;-147.70;100.00;61350.09;5038501;28;45402;-73
2023/07/10 08:16:32;;;;;;;;;3.00;1.00;;;;;-147.70;100.00;61350.09;5038554;28;45423;-72
2023/07/10 08:18:58;;;;;;;;;3.33;2.00;;;;;-147.70;100.00;61350.09;5038774;28;45715;-72
2023/07/10 08:21:23;;;;;;;;;1.00;1.00;;;;;-147.70;100.00;61350.09;5038788;28;45484;-73
2023/07/10 08:23:49;;;;;;;;;4.00;2.00;;;;;-147.70;100.00;61350.09;5038355;28;46575;-72
2023/07/10 08:26:14;;;;;;;;;3.00;1.00;;;;;-147.70;100.00;61350.09;5038462;28;45347;-73
2023/07/10 08:28:40;;;;;;;;;1.00;1.00;;;;;-147.70;100.00;61350.09;5038623;28;45377;-72
2023/07/10 08:31:06;;;;;;;;;2.00;2.00;;;;;-147.70;100.00;61350.09;5038686;28;45183;-73
2023/07/10 08:33:31;;;;;;;;;2.33;1.00;;;;;-147.70;100.00;61350.09;5038127;28;47239;-72
2023/07/10 08:36:02;;;;;;;;;3.00;1.00;;;;;-147.70;100.00;61350.09;5038253;28;45310;-72
2023/07/10 08:38:28;;;;;;;;;2.33;2.00;;;;;-147.70;100.00;61350.09;5038565;28;45325;-72
2023/07/10 08:41:00;;;;;;;;;3.33;2.00;;;;;-147.70;100.00;61350.09;5038471;28;45511;-73
2023/07/10 08:43:34;;;;;;;;;3.33;3.33;;;;;-147.70;100.00;61350.09;5037907;28;46556;-72
2023/07/10 08:46:08;;;;;;;;;1.00;1.00;;;;;-147.70;100.00;61350.09;5037896;28;45404;-73
2023/07/10 08:48:36;;;;;;;;;7.00;7.00;;;;;-147.70;100.00;61350.09;5038447;28;45229;-73
2023/07/10 08:51:19;;;;;;;;;2.00;2.00;;;;;-147.70;100.00;61350.09;5038212;28;45336;-73
2023/07/10 08:53:50;;;;;;;;;2.33;2.00;;;;;-147.70;100.00;61350.09;5037928;28;46645;-72
2023/07/10 08:56:28;;;;;;;;;1.00;1.00;;;;;-147.70;100.00;61350.09;5038164;28;45268;-72
2023/07/10 08:59:11;;;;;;;;;5.67;4.67;;;;;-147.70;100.00;61350.09;5038111;28;45431;-73
2023/07/10 09:01:41;;;;;;;;;2.00;2.00;;;;;-147.70;100.00;61350.09;5038100;28;45280;-71
2023/07/10 09:04:12;;;;;;;;;4.00;4.00;;;;;-147.70;100.00;61350.09;5037657;28;47523;-72
2023/07/10 09:06:59;;;;;;;;;1.00;1.00;;;;;-147.70;100.00;61350.09;5037585;28;45413;-73
2023/07/10 09:09:40;;;;;;;;;1.00;1.00;;;;;-147.70;100.00;61350.09;5037848;28;45513;-73
2023/07/10 09:12:22;;;;;;;;;1.00;1.00;;;;;-147.70;100.00;61350.09;5037938;28;45331;-73
2023/07/10 09:14:53;;;;;;;;;1.00;1.00;;;;;-147.70;100.00;61350.09;5037589;28;46582;-73
2023/07/10 09:17:55;;;;;;;;;2.00;2.00;;;;;-147.70;100.00;61350.09;5037628;28;45220;-73
2023/07/10 09:20:24;;;;;;;;;3.00;3.00;;;;;-147.70;100.00;61350.09;5032783;28;45450;-73
2023/07/10 09:23:02;;;;;;;;;5.67;4.67;;;;;-147.70;100.00;61350.09;5037832;28;45583;-73
2023/07/10 09:25:28;;;;;;;;;3.00;1.67;;;;;-147.70;100.00;61350.09;5037332;28;46522;-73
2023/07/10 09:27:54;;;;;;;;;2.00;2.00;;;;;-147.70;100.00;61350.09;5037515;28;45420;-72
2023/07/10 09:31:00;;;;;;;;;0.33;0.33;;;;;-147.70;100.00;61350.09;5037552;28;45323;-72
2023/07/10 09:33:56;;;;;;;;;5.00;3.33;;;;;-147.70;100.00;61350.09;5015761;28;45220;-73
2023/07/10 09:36:22;;;;;;;;;6.33;5.00;;;;;-147.70;100.00;61350.09;5008169;28;46006;-73
2023/07/10 09:38:50;;;;;;;;;5.00;2.00;;;;;-147.70;100.00;61350.09;5015298;28;45299;-70
2023/07/10 09:41:21;;;;;;;;;4.00;4.00;;;;;-147.70;100.00;61350.09;5015229;28;45437;-70
2023/07/10 09:44:16;;;;;;;;;2.00;2.00;;;;;-147.70;100.00;61350.09;5015345;28;45690;-70
2023/07/10 09:46:41;;;;;;;;;3.00;2.00;;;;;-147.70;100.00;61350.09;5014915;28;45617;-70
2023/07/10 09:49:13;;;;;;;;;3.33;2.00;;;;;-147.70;100.00;61350.09;5015166;28;45341;-70
2023/07/10 09:51:56;;;;;;;;;3.00;3.00;;;;;-147.70;100.00;61350.09;5015328;28;45492;-69
2023/07/10 09:54:22;;;;;;;;;4.33;2.00;;;;;-147.70;100.00;61350.09;5024191;28;45507;-66
2023/07/10 09:56:50;;;;;;;;;5.00;2.00;;;;;-147.70;100.00;61350.09;5033577;28;46151;-68
2023/07/10 09:59:20;;;;;;;;;2.00;2.00;;;;;-147.70;100.00;61350.09;5034335;28;45436;-70
2023/07/10 10:01:47;;;;;;;;;5.67;5.00;;;;;-147.70;100.00;61350.09;5014625;28;45458;-70
2023/07/10 10:04:24;;;;;;;;;1.00;1.00;;;;;-147.70;100.00;61350.09;5032670;28;45395;-70
2023/07/10 10:07:01;;;;;;;;;1.33;1.33;;;;;-147.70;100.00;61350.09;5044846;28;46209;-71
2023/07/10 10:09:28;;;;;;;;;3.00;2.33;;;;;-147.70;100.00;61350.09;5038231;28;45494;-70
2023/07/10 10:12:02;;;;;;;;;3.00;2.67;;;;;-147.70;100.00;61350.09;5038029;28;45506;-71
2023/07/10 10:15:00;;;;;;;;;1.00;1.00;;;;;-147.70;100.00;61350.09;5047666;28;45412;-71
2023/07/10 10:17:26;;;;;;;;;3.00;1.67;;;;;-147.70;100.00;61350.09;5049585;28;46205;-70
2023/07/10 10:19:57;;;;;;;;;3.67;0.67;;;;;-147.70;100.00;61350.09;5036761;28;45356;-69
2023/07/10 10:22:27;;;;;;;;;1.00;1.00;;;;;-147.70;100.00;61350.09;5040130;28;45471;-69
2023/07/10 10:24:53;;;;;;;;;5.67;4.67;;;;;-147.70;100.00;61350.09;5040647;28;45281;-70
2023/07/10 10:27:31;;;;;;;;;5.67;5.67;;;;;-147.70;100.00;61350.09;5047299;28;46093;-69
2023/07/10 10:30:09;;;;;;;;;3.33;3.33;;;;;-147.70;100.00;61350.09;5060320;28;45251;-69
2023/07/10 10:33:06;;;;;;;;;2.00;2.00;;;;;-147.70;100.00;61350.09;5046868;28;45385;-68
2023/07/10 10:35:56;;;;;;;;;2.67;2.00;;;;;-147.70;100.00;61350.09;5040360;28;45324;-69
2023/07/10 10:38:36;;;;;;;;;3.33;2.00;;;;;-147.70;100.00;61350.09;5051935;28;46534;-69
2023/07/10 10:41:40;;;;;;;;;2.67;2.00;;;;;-147.70;100.00;61350.09;5060220;28;45332;-69
2023/07/10 10:44:17;;;;;;;;;3.67;2.00;;;;;-147.70;100.00;61350.09;5037729;28;45383;-69
2023/07/10 10:46:57;;;;;;;;;2.00;2.00;;;;;-147.70;100.00;61350.09;5037463;28;45390;-69
2023/07/10 10:49:49;;;;;;;;;15.33;14.00;;;;;-147.70;100.00;61350.09;5029844;28;46513;-69
2023/07/10 10:52:24;;;;;;;;;4.00;3.67;;;;;-147.70;100.00;61350.09;4958385;28;45504;-69
2023/07/10 10:55:12;;;;;;;;;2.67;2.00;;;;;-147.70;100.00;61350.09;4958924;28;45445;-68
2023/07/10 10:57:49;;;;;;;;;3.67;2.67;;;;;-147.70;100.00;61350.09;4959029;28;45490;-69
2023/07/10 11:00:29;;;;;;;;;6.00;6.00;;;;;-147.70;100.00;61350.09;4958109;28;46474;-68
2023/07/10 11:03:23;;;;;;;;;2.33;2.33;;;;;-147.70;100.00;61350.09;4957460;28;45386;-72
2023/07/10 11:05:54;;;;;;;;;6.67;3.00;;;;;-147.70;100.00;61350.09;4958641;28;45617;-72
2023/07/10 11:08:34;;;;;;;;;3.00;3.00;;;;;-147.70;100.00;61350.09;4958879;28;45341;-71
2023/07/10 11:11:04;;;;;;;;;3.00;1.00;;;;;-147.70;100.00;61350.09;4957520;28;46218;-72
2023/07/10 11:13:37;;;;;;;;;2.67;2.67;;;;;-147.70;100.00;61350.09;4958663;28;45548;-69
2023/07/10 11:16:06;;;;;;;;;3.33;2.33;;;;;-147.70;100.00;61350.09;4995431;28;45508;-73